createdAt,value
2019-04-10T00:00:32.930Z,15.60
2019-04-10T00:01:37.453Z,11.20
2019-04-10T00:02:40.051Z,12.40
2019-04-10T00:03:43.760Z,15.20
2019-04-10T00:04:47.344Z,14.80
2019-04-10T00:05:50.114Z,13.20
2019-04-10T00:06:52.237Z,14.00
2019-04-10T00:07:55.499Z,16.40
2019-04-10T00:08:58.806Z,13.40
2019-04-10T00:10:01.506Z,16.60
2019-04-10T00:11:04.719Z,15.00
2019-04-10T00:12:09.495Z,15.20
2019-04-10T00:13:12.866Z,13.40
2019-04-10T00:14:15.140Z,15.40
2019-04-10T00:15:19.344Z,15.20
2019-04-10T00:16:22.400Z,12.20
2019-04-10T00:17:25.785Z,16.20
2019-04-10T00:18:27.582Z,14.80
2019-04-10T00:19:29.245Z,16.80
2019-04-10T00:20:32.281Z,15.20
2019-04-10T00:21:35.541Z,12.00
2019-04-10T00:22:38.191Z,16.00
2019-04-10T00:23:41.561Z,15.80
2019-04-10T00:24:44.255Z,14.00
2019-04-10T00:25:46.603Z,16.20
2019-04-10T00:26:50.104Z,17.20
2019-04-10T00:27:52.721Z,17.40
2019-04-10T00:28:56.047Z,17.40
2019-04-10T00:29:58.648Z,17.00
2019-04-10T00:31:01.922Z,16.20
2019-04-10T00:32:05.670Z,18.00
2019-04-10T00:33:08.256Z,16.20
2019-04-10T00:34:11.475Z,13.40
2019-04-10T00:35:15.021Z,18.20
2019-04-10T00:36:18.266Z,17.80
2019-04-10T00:37:26.062Z,16.00
2019-04-10T00:38:26.022Z,17.60
2019-04-10T00:39:28.737Z,15.40
2019-04-10T00:40:31.178Z,16.00
2019-04-10T00:41:34.429Z,16.40
2019-04-10T00:42:37.027Z,16.60
2019-04-10T00:43:40.137Z,18.20
2019-04-10T00:44:43.849Z,13.60
2019-04-10T00:45:46.260Z,19.80
2019-04-10T00:46:48.713Z,18.00
2019-04-10T00:47:51.222Z,18.60
2019-04-10T00:48:54.457Z,12.80
2019-04-10T00:49:57.894Z,18.20
2019-04-10T00:51:01.275Z,17.00
2019-04-10T00:52:04.064Z,14.40
2019-04-10T00:53:06.537Z,14.60
2019-04-10T00:54:09.846Z,15.40
2019-04-10T00:55:13.246Z,13.80
2019-04-10T00:56:16.566Z,17.20
2019-04-10T00:57:18.902Z,19.00
2019-04-10T00:58:22.439Z,14.00
2019-04-10T00:59:26.136Z,12.40
2019-04-10T01:00:28.779Z,17.20
2019-04-10T01:01:32.023Z,16.40
2019-04-10T01:02:34.731Z,17.40
2019-04-10T01:03:43.490Z,15.80
2019-04-10T01:04:46.734Z,14.60
2019-04-10T01:05:51.308Z,17.40
2019-04-10T01:06:54.540Z,19.40
2019-04-10T01:07:57.160Z,13.40
2019-04-10T01:08:59.684Z,18.20
2019-04-10T01:10:05.975Z,17.40
2019-04-10T01:11:08.948Z,17.20
2019-04-10T01:12:11.956Z,17.00
2019-04-10T01:13:14.642Z,12.00
2019-04-10T01:14:17.905Z,16.20
2019-04-10T01:15:20.910Z,15.40
2019-04-10T01:16:23.358Z,13.80
2019-04-10T01:17:26.341Z,16.40
2019-04-10T01:18:28.987Z,18.20
2019-04-10T01:19:32.161Z,15.80
2019-04-10T01:20:34.814Z,19.00
2019-04-10T01:21:37.369Z,14.20
2019-04-10T01:22:39.441Z,13.40
2019-04-10T01:23:43.212Z,19.00
2019-04-10T01:24:46.064Z,19.00
2019-04-10T01:25:48.852Z,18.00
2019-04-10T01:26:53.540Z,15.60
2019-04-10T01:27:56.336Z,15.00
2019-04-10T01:28:58.987Z,17.40
2019-04-10T01:30:02.348Z,17.40
2019-04-10T01:31:06.752Z,14.80
2019-04-10T01:32:09.810Z,15.80
2019-04-10T01:33:12.589Z,15.00
2019-04-10T01:34:14.431Z,18.60
2019-04-10T01:35:16.742Z,13.80
2019-04-10T01:36:18.903Z,15.60
2019-04-10T01:37:22.759Z,15.60
2019-04-10T01:38:27.723Z,14.20
2019-04-10T01:39:32.614Z,17.20
2019-04-10T01:40:35.159Z,15.00
2019-04-10T01:41:37.503Z,14.20
2019-04-10T01:42:40.649Z,13.00
2019-04-10T01:43:45.349Z,17.00
2019-04-10T01:44:49.012Z,18.40
2019-04-10T01:45:51.563Z,20.40
2019-04-10T01:46:54.887Z,15.80
2019-04-10T01:47:57.525Z,17.00
2019-04-10T01:48:59.711Z,17.00
2019-04-10T01:50:02.497Z,15.20
2019-04-10T01:51:06.733Z,14.20
2019-04-10T01:52:08.931Z,15.40
2019-04-10T01:53:11.363Z,18.00
2019-04-10T01:54:15.172Z,11.40
2019-04-10T01:55:25.256Z,14.80
2019-04-10T01:56:30.238Z,16.00
2019-04-10T01:57:26.853Z,18.80
2019-04-10T01:58:29.389Z,10.60
2019-04-10T01:59:34.444Z,12.40
2019-04-10T02:00:38.318Z,16.60
2019-04-10T02:02:00.988Z,17.20
2019-04-10T02:03:03.995Z,15.40
2019-04-10T02:04:06.750Z,15.80
2019-04-10T02:05:09.982Z,15.40
2019-04-10T02:06:13.323Z,14.40
2019-04-10T02:07:16.114Z,11.60
2019-04-10T02:08:19.002Z,14.60
2019-04-10T02:09:21.485Z,14.40
2019-04-10T02:10:24.053Z,12.20
2019-04-10T02:11:27.979Z,15.00
2019-04-10T02:12:30.603Z,13.80
2019-04-10T02:13:33.857Z,14.60
2019-04-10T02:14:36.871Z,14.80
2019-04-10T02:15:38.820Z,14.40
2019-04-10T02:16:41.219Z,14.00
2019-04-10T02:17:44.508Z,16.60
2019-04-10T02:18:47.856Z,13.00
2019-04-10T02:19:50.309Z,11.60
2019-04-10T02:20:53.540Z,13.40
2019-04-10T02:21:56.160Z,12.40
2019-04-10T02:22:58.560Z,15.20
2019-04-10T02:24:00.958Z,14.00
2019-04-10T02:25:05.237Z,14.20
2019-04-10T02:26:07.925Z,11.00
2019-04-10T02:27:10.477Z,12.00
2019-04-10T02:28:13.083Z,12.40
2019-04-10T02:29:15.604Z,14.60
2019-04-10T02:30:19.747Z,13.20
2019-04-10T02:31:23.642Z,12.80
2019-04-10T02:32:26.539Z,12.60
2019-04-10T02:33:31.416Z,11.00
2019-04-10T02:34:33.793Z,13.20
2019-04-10T02:35:36.237Z,12.40
2019-04-10T02:36:39.174Z,15.80
2019-04-10T02:37:41.735Z,12.80
2019-04-10T02:38:59.287Z,12.80
2019-04-10T02:39:52.159Z,12.20
2019-04-10T02:40:53.067Z,12.80
2019-04-10T02:41:56.234Z,12.00
2019-04-10T02:42:59.101Z,12.20
2019-04-10T02:44:02.973Z,10.00
2019-04-10T02:45:06.818Z,11.40
2019-04-10T02:46:11.283Z,11.80
2019-04-10T02:47:14.685Z,9.40
2019-04-10T02:48:17.135Z,12.20
2019-04-10T02:49:20.252Z,10.00
2019-04-10T02:50:25.081Z,10.20
2019-04-10T02:51:27.730Z,10.20
2019-04-10T02:52:30.940Z,9.80
2019-04-10T02:53:35.077Z,10.60
2019-04-10T02:54:37.638Z,11.00
2019-04-10T02:55:40.867Z,11.00
2019-04-10T02:56:44.219Z,11.60
2019-04-10T02:57:47.933Z,10.60
2019-04-10T02:58:51.549Z,8.60
2019-04-10T02:59:55.635Z,11.00
2019-04-10T03:00:59.083Z,9.00
2019-04-10T03:02:02.450Z,10.40
2019-04-10T03:03:05.574Z,11.00
2019-04-10T03:04:09.151Z,8.00
2019-04-10T03:05:13.552Z,10.00
2019-04-10T03:06:18.739Z,8.00
2019-04-10T03:07:22.057Z,10.40
2019-04-10T03:08:41.023Z,9.60
2019-04-10T03:09:46.036Z,9.40
2019-04-10T03:10:44.156Z,8.80
2019-04-10T03:11:43.736Z,9.00
2019-04-10T03:12:48.110Z,9.00
2019-04-10T03:13:53.277Z,10.00
2019-04-10T03:14:56.387Z,8.80
2019-04-10T03:16:00.013Z,11.40
2019-04-10T03:17:02.552Z,8.60
2019-04-10T03:18:06.369Z,10.00
2019-04-10T03:19:09.461Z,8.60
2019-04-10T03:20:12.018Z,6.20
2019-04-10T03:21:15.331Z,8.40
2019-04-10T03:22:18.779Z,8.80
2019-04-10T03:23:21.502Z,10.00
2019-04-10T03:24:23.327Z,8.20
2019-04-10T03:25:28.871Z,9.60
2019-04-10T03:26:32.039Z,8.20
2019-04-10T03:27:34.559Z,9.20
2019-04-10T03:28:37.248Z,6.80
2019-04-10T03:29:39.998Z,10.00
2019-04-10T03:30:41.820Z,7.00
2019-04-10T03:31:45.287Z,9.80
2019-04-10T03:32:57.235Z,7.40
2019-04-10T03:33:58.715Z,9.40
2019-04-10T03:35:06.543Z,10.80
2019-04-10T03:36:09.518Z,8.80
2019-04-10T03:37:12.137Z,7.00
2019-04-10T03:38:14.764Z,8.80
2019-04-10T03:39:17.468Z,7.00
2019-04-10T03:40:19.654Z,11.20
2019-04-10T03:41:21.788Z,8.80
2019-04-10T03:42:25.275Z,7.80
2019-04-10T03:43:27.897Z,9.00
2019-04-10T03:44:30.469Z,8.80
2019-04-10T03:45:33.001Z,7.40
2019-04-10T03:46:37.075Z,7.00
2019-04-10T03:47:39.728Z,6.00
2019-04-10T03:48:42.441Z,10.00
2019-04-10T03:49:44.464Z,9.20
2019-04-10T03:50:47.933Z,8.80
2019-04-10T03:51:50.413Z,9.20
2019-04-10T03:52:53.453Z,8.40
2019-04-10T03:53:56.608Z,6.80
2019-04-10T03:54:58.719Z,7.60
2019-04-10T03:56:01.313Z,7.80
2019-04-10T03:57:04.571Z,8.00
2019-04-10T03:58:07.207Z,6.60
2019-04-10T03:59:09.452Z,6.20
2019-04-10T04:00:12.276Z,6.80
2019-04-10T04:01:14.536Z,8.00
2019-04-10T04:02:18.230Z,7.60
2019-04-10T04:03:20.394Z,6.80
2019-04-10T04:04:23.774Z,7.20
2019-04-10T04:05:26.693Z,9.40
2019-04-10T04:06:31.427Z,5.40
2019-04-10T04:07:34.669Z,6.00
2019-04-10T04:08:39.467Z,9.00
2019-04-10T04:09:41.929Z,8.20
2019-04-10T04:10:44.747Z,7.00
2019-04-10T04:11:48.133Z,7.20
2019-04-10T04:12:50.977Z,7.20
2019-04-10T04:13:53.090Z,8.00
2019-04-10T04:14:55.498Z,9.40
2019-04-10T04:15:58.143Z,9.00
2019-04-10T04:17:01.922Z,8.20
2019-04-10T04:18:05.141Z,7.00
2019-04-10T04:19:08.024Z,6.60
2019-04-10T04:20:10.918Z,7.00
2019-04-10T04:21:15.056Z,7.20
2019-04-10T04:22:18.802Z,10.80
2019-04-10T04:23:21.522Z,7.20
2019-04-10T04:24:25.509Z,7.00
2019-04-10T04:25:28.850Z,6.40
2019-04-10T04:26:31.718Z,7.00
2019-04-10T04:27:35.649Z,7.40
2019-04-10T04:28:38.219Z,6.00
2019-04-10T04:29:41.335Z,7.80
2019-04-10T04:30:43.862Z,7.80
2019-04-10T04:31:46.371Z,9.60
2019-04-10T04:32:49.119Z,6.40
2019-04-10T04:33:51.957Z,7.80
2019-04-10T04:34:54.276Z,8.00
2019-04-10T04:35:57.137Z,8.60
2019-04-10T04:37:00.264Z,7.60
2019-04-10T04:38:02.646Z,6.60
2019-04-10T04:39:18.008Z,7.80
2019-04-10T04:40:13.180Z,8.40
2019-04-10T04:41:15.789Z,9.80
2019-04-10T04:42:18.189Z,8.20
2019-04-10T04:43:21.785Z,10.60
2019-04-10T04:44:24.755Z,8.80
2019-04-10T04:45:27.850Z,9.20
2019-04-10T04:46:30.311Z,7.60
2019-04-10T04:47:33.307Z,7.00
2019-04-10T04:48:35.572Z,6.80
2019-04-10T04:49:37.833Z,9.40
2019-04-10T04:50:40.246Z,7.40
2019-04-10T04:51:43.769Z,9.20
2019-04-10T04:52:45.810Z,9.80
2019-04-10T04:53:50.489Z,7.60
2019-04-10T04:54:55.247Z,6.80
2019-04-10T04:55:57.854Z,6.00
2019-04-10T04:57:00.779Z,7.80
2019-04-10T04:58:04.279Z,6.40
2019-04-10T04:59:07.930Z,6.40
2019-04-10T05:00:10.495Z,6.80
2019-04-10T05:01:12.759Z,5.60
2019-04-10T05:02:15.085Z,5.80
2019-04-10T05:03:17.230Z,9.60
2019-04-10T05:04:19.672Z,8.00
2019-04-10T05:05:25.270Z,6.40
2019-04-10T05:06:27.368Z,7.00
2019-04-10T05:07:29.980Z,7.00
2019-04-10T05:08:32.661Z,9.00
2019-04-10T05:09:38.750Z,7.60
2019-04-10T05:10:39.852Z,9.00
2019-04-10T05:11:42.694Z,8.00
2019-04-10T05:12:45.251Z,8.00
2019-04-10T05:13:48.956Z,10.00
2019-04-10T05:14:51.772Z,7.00
2019-04-10T05:15:53.560Z,10.60
2019-04-10T05:16:55.624Z,11.00
2019-04-10T05:17:58.430Z,7.60
2019-04-10T05:19:01.676Z,10.00
2019-04-10T05:20:07.019Z,8.60
2019-04-10T05:21:10.614Z,9.40
2019-04-10T05:22:14.324Z,9.20
2019-04-10T05:23:18.058Z,7.00
2019-04-10T05:24:20.561Z,6.60
2019-04-10T05:25:23.427Z,9.40
2019-04-10T05:26:28.247Z,8.80
2019-04-10T05:27:30.915Z,9.20
2019-04-10T05:28:33.359Z,9.80
2019-04-10T05:29:38.742Z,7.40
2019-04-10T05:30:41.143Z,6.20
2019-04-10T05:31:44.688Z,8.40
2019-04-10T05:32:47.268Z,11.00
2019-04-10T05:33:51.264Z,8.80
2019-04-10T05:34:54.550Z,10.60
2019-04-10T05:35:57.493Z,10.00
2019-04-10T05:36:59.903Z,8.20
2019-04-10T05:38:02.618Z,9.20
2019-04-10T05:39:06.815Z,8.60
2019-04-10T05:40:09.856Z,7.00
2019-04-10T05:41:13.331Z,9.00
2019-04-10T05:42:15.401Z,8.00
2019-04-10T05:43:18.033Z,10.00
2019-04-10T05:44:20.256Z,6.40
2019-04-10T05:45:23.274Z,11.20
2019-04-10T05:46:25.958Z,11.60
2019-04-10T05:47:28.401Z,10.80
2019-04-10T05:48:31.418Z,12.20
2019-04-10T05:49:33.919Z,9.20
2019-04-10T05:50:37.760Z,10.60
2019-04-10T05:51:40.001Z,11.60
2019-04-10T05:52:43.023Z,10.80
2019-04-10T05:53:45.221Z,11.00
2019-04-10T05:54:47.393Z,8.40
2019-04-10T05:55:49.673Z,11.00
2019-04-10T05:56:52.650Z,11.60
2019-04-10T05:57:55.319Z,10.40
2019-04-10T05:58:57.420Z,10.60
2019-04-10T06:00:00.549Z,8.80
2019-04-10T06:01:05.370Z,10.80
2019-04-10T06:02:08.158Z,7.80
2019-04-10T06:03:12.358Z,8.00
2019-04-10T06:04:15.125Z,11.60
2019-04-10T06:05:18.151Z,10.80
2019-04-10T06:06:20.544Z,9.80
2019-04-10T06:07:23.159Z,13.40
2019-04-10T06:08:25.815Z,11.80
2019-04-10T06:09:28.957Z,11.60
2019-04-10T06:10:32.128Z,9.00
2019-04-10T06:11:35.758Z,11.20
2019-04-10T06:12:38.359Z,11.40
2019-04-10T06:13:40.915Z,11.80
2019-04-10T06:14:43.674Z,11.00
2019-04-10T06:15:45.606Z,12.20
2019-04-10T06:16:48.976Z,10.60
2019-04-10T06:17:52.523Z,11.00
2019-04-10T06:18:54.538Z,11.80
2019-04-10T06:19:58.663Z,11.00
2019-04-10T06:21:02.975Z,10.00
2019-04-10T06:22:06.194Z,8.00
2019-04-10T06:23:09.485Z,11.60
2019-04-10T06:24:12.010Z,10.20
2019-04-10T06:25:16.055Z,10.40
2019-04-10T06:26:19.885Z,11.60
2019-04-10T06:27:23.951Z,7.60
2019-04-10T06:28:27.946Z,7.40
2019-04-10T06:29:31.438Z,10.80
2019-04-10T06:30:34.868Z,7.20
2019-04-10T06:31:37.315Z,10.00
2019-04-10T06:32:39.810Z,10.80
2019-04-10T06:33:42.458Z,8.60
2019-04-10T06:34:46.072Z,10.80
2019-04-10T06:35:49.006Z,11.00
2019-04-10T06:36:51.905Z,8.60
2019-04-10T06:37:54.743Z,9.80
2019-04-10T06:38:57.500Z,11.20
2019-04-10T06:40:12.998Z,10.80
2019-04-10T06:41:08.747Z,12.00
2019-04-10T06:42:12.102Z,9.80
2019-04-10T06:43:15.020Z,10.40
2019-04-10T06:44:17.626Z,7.40
2019-04-10T06:45:20.491Z,11.80
2019-04-10T06:46:22.670Z,12.20
2019-04-10T06:47:25.191Z,10.40
2019-04-10T06:48:27.895Z,11.20
2019-04-10T06:49:31.138Z,11.00
2019-04-10T06:50:33.549Z,8.80
2019-04-10T06:51:36.019Z,10.20
2019-04-10T06:52:41.004Z,11.20
2019-04-10T06:53:50.356Z,10.40
2019-04-10T06:54:51.536Z,9.80
2019-04-10T06:55:54.440Z,7.40
2019-04-10T06:56:56.797Z,10.60
2019-04-10T06:57:59.723Z,8.00
2019-04-10T06:59:04.567Z,10.40
2019-04-10T07:00:13.753Z,9.80
2019-04-10T07:01:16.636Z,11.00
2019-04-10T07:02:24.544Z,9.20
2019-04-10T07:03:25.197Z,10.80
2019-04-10T07:04:28.404Z,11.40
2019-04-10T07:05:39.784Z,12.00
2019-04-10T07:06:47.210Z,10.00
2019-04-10T07:07:49.859Z,12.40
2019-04-10T07:08:48.841Z,9.00
2019-04-10T07:09:49.600Z,10.40
2019-04-10T07:11:02.026Z,7.00
2019-04-10T07:12:01.027Z,11.20
2019-04-10T07:13:06.311Z,12.80
2019-04-10T07:14:13.451Z,9.80
2019-04-10T07:15:13.237Z,10.00
2019-04-10T07:16:15.924Z,10.20
2019-04-10T07:17:18.695Z,9.00
2019-04-10T07:18:21.972Z,11.80
2019-04-10T07:19:24.542Z,10.60
2019-04-10T07:20:26.964Z,10.60
2019-04-10T07:21:30.683Z,11.00
2019-04-10T07:22:33.947Z,11.20
2019-04-10T07:23:36.863Z,10.20
2019-04-10T07:24:42.467Z,11.20
2019-04-10T07:25:45.761Z,11.60
2019-04-10T07:26:51.767Z,10.60
2019-04-10T07:27:54.372Z,9.00
2019-04-10T07:28:58.790Z,7.40
2019-04-10T07:30:01.730Z,12.80
2019-04-10T07:31:08.133Z,11.40
2019-04-10T07:32:10.625Z,8.00
2019-04-10T07:33:14.835Z,7.60
2019-04-10T07:34:20.083Z,9.80
2019-04-10T07:35:21.942Z,11.20
2019-04-10T07:36:26.667Z,7.80
2019-04-10T07:37:29.589Z,9.00
2019-04-10T07:38:32.918Z,11.40
2019-04-10T07:39:35.371Z,11.20
2019-04-10T07:40:38.627Z,9.80
2019-04-10T07:41:41.784Z,8.60
2019-04-10T07:42:44.217Z,7.60
2019-04-10T07:43:52.475Z,6.80
2019-04-10T07:44:51.535Z,7.00
2019-04-10T07:45:56.625Z,5.60
2019-04-10T07:46:59.728Z,6.40
2019-04-10T07:48:02.565Z,6.00
2019-04-10T07:49:04.907Z,7.80
2019-04-10T07:50:08.808Z,6.40
2019-04-10T07:51:11.376Z,6.80
2019-04-10T07:52:13.643Z,5.80
2019-04-10T07:53:16.983Z,6.60
2019-04-10T07:54:21.201Z,7.20
2019-04-10T07:55:25.258Z,7.00
2019-04-10T07:56:27.811Z,7.60
2019-04-10T07:57:30.751Z,7.00
2019-04-10T07:58:33.403Z,6.00
2019-04-10T07:59:35.877Z,7.80
2019-04-10T08:00:38.788Z,5.80
2019-04-10T08:01:42.073Z,7.00
2019-04-10T08:02:44.849Z,6.60
2019-04-10T08:03:47.836Z,10.20
2019-04-10T08:04:50.144Z,7.40
2019-04-10T08:05:52.633Z,8.00
2019-04-10T08:06:54.909Z,8.00
2019-04-10T08:07:57.600Z,10.40
2019-04-10T08:09:01.291Z,11.20
2019-04-10T08:10:07.812Z,11.00
2019-04-10T08:11:10.834Z,9.80
2019-04-10T08:12:14.066Z,9.40
2019-04-10T08:13:16.938Z,7.80
2019-04-10T08:14:19.656Z,10.40
2019-04-10T08:15:22.231Z,9.40
2019-04-10T08:16:25.352Z,9.00
2019-04-10T08:17:28.273Z,8.80
2019-04-10T08:18:31.717Z,8.80
2019-04-10T08:19:35.032Z,8.40
2019-04-10T08:20:38.585Z,7.40
2019-04-10T08:21:40.621Z,7.80
2019-04-10T08:22:43.213Z,11.40
2019-04-10T08:23:46.439Z,9.60
2019-04-10T08:24:49.207Z,9.00
2019-04-10T08:25:51.732Z,9.60
2019-04-10T08:26:54.824Z,10.80
2019-04-10T08:27:57.493Z,6.60
2019-04-10T08:29:01.597Z,10.00
2019-04-10T08:30:07.387Z,9.40
2019-04-10T08:31:10.624Z,6.20
2019-04-10T08:32:13.910Z,7.00
2019-04-10T08:33:17.478Z,7.00
2019-04-10T08:34:19.801Z,10.60
2019-04-10T08:35:23.002Z,8.20
2019-04-10T08:36:25.928Z,7.20
2019-04-10T08:37:28.315Z,10.80
2019-04-10T08:38:32.376Z,7.80
2019-04-10T08:39:41.162Z,9.20
2019-04-10T08:40:38.827Z,7.20
2019-04-10T08:41:41.597Z,9.80
2019-04-10T08:42:46.032Z,8.00
2019-04-10T08:43:50.335Z,8.80
2019-04-10T08:44:54.198Z,8.80
2019-04-10T08:45:56.950Z,8.00
2019-04-10T08:47:00.186Z,9.20
2019-04-10T08:48:03.583Z,8.20
2019-04-10T08:49:06.039Z,8.60
2019-04-10T08:50:09.657Z,7.60
2019-04-10T08:51:12.497Z,7.40
2019-04-10T08:52:14.878Z,10.40
2019-04-10T08:53:17.999Z,11.00
2019-04-10T08:54:20.723Z,9.00
2019-04-10T08:55:26.045Z,10.00
2019-04-10T08:56:30.104Z,8.80
2019-04-10T08:57:34.094Z,9.60
2019-04-10T08:58:37.076Z,9.00
2019-04-10T08:59:40.216Z,7.80
2019-04-10T09:00:43.264Z,11.00
2019-04-10T09:01:45.835Z,9.80
2019-04-10T09:02:48.668Z,10.00
2019-04-10T09:03:51.268Z,8.20
2019-04-10T09:04:53.772Z,9.40
2019-04-10T09:05:56.534Z,10.40
2019-04-10T09:07:01.408Z,9.20
2019-04-10T09:08:04.968Z,11.00
2019-04-10T09:09:07.699Z,9.80
2019-04-10T09:10:12.316Z,6.00
2019-04-10T09:11:23.048Z,7.00
2019-04-10T09:12:19.816Z,6.00
2019-04-10T09:13:22.534Z,9.80
2019-04-10T09:14:25.203Z,10.00
2019-04-10T09:15:28.470Z,7.80
2019-04-10T09:16:31.149Z,10.20
2019-04-10T09:17:33.914Z,9.20
2019-04-10T09:18:36.970Z,7.80
2019-04-10T09:19:40.247Z,7.00
2019-04-10T09:20:42.926Z,10.60
2019-04-10T09:21:45.767Z,10.00
2019-04-10T09:23:10.795Z,9.80
2019-04-10T09:23:56.212Z,10.80
2019-04-10T09:24:58.439Z,8.60
2019-04-10T09:26:01.808Z,8.80
2019-04-10T09:27:05.727Z,11.60
2019-04-10T09:28:08.558Z,10.80
2019-04-10T09:29:11.834Z,10.80
2019-04-10T09:30:14.813Z,13.20
2019-04-10T09:31:17.794Z,10.40
2019-04-10T09:32:22.281Z,6.20
2019-04-10T09:33:27.767Z,11.00
2019-04-10T09:34:28.877Z,9.00
2019-04-10T09:35:31.297Z,12.00
2019-04-10T09:36:33.731Z,10.80
2019-04-10T09:37:36.085Z,10.80
2019-04-10T09:38:39.050Z,9.80
2019-04-10T09:39:41.553Z,9.80
2019-04-10T09:40:44.697Z,10.80
2019-04-10T09:41:47.362Z,12.00
2019-04-10T09:42:50.021Z,11.80
2019-04-10T09:43:52.350Z,10.40
2019-04-10T09:44:55.126Z,8.60
2019-04-10T09:45:58.215Z,7.80
2019-04-10T09:47:03.342Z,6.40
2019-04-10T09:48:08.414Z,11.60
2019-04-10T09:49:12.513Z,9.60
2019-04-10T09:50:17.367Z,7.80
2019-04-10T09:51:19.969Z,9.00
2019-04-10T09:52:22.162Z,10.80
2019-04-10T09:53:25.120Z,10.00
2019-04-10T09:54:28.136Z,10.40
2019-04-10T09:55:30.177Z,12.00
2019-04-10T09:56:32.808Z,10.20
2019-04-10T09:57:34.992Z,12.00
2019-04-10T09:58:37.282Z,9.60
2019-04-10T09:59:41.323Z,11.40
2019-04-10T10:00:45.865Z,13.40
2019-04-10T10:01:48.601Z,12.00
2019-04-10T10:02:51.025Z,9.40
2019-04-10T10:03:54.805Z,12.80
2019-04-10T10:04:58.024Z,12.80
2019-04-10T10:06:01.688Z,12.00
2019-04-10T10:07:05.622Z,12.60
2019-04-10T10:08:10.588Z,10.60
2019-04-10T10:09:14.752Z,10.60
2019-04-10T10:10:17.424Z,11.60
2019-04-10T10:11:20.231Z,9.80
2019-04-10T10:12:25.666Z,11.20
2019-04-10T10:13:28.280Z,10.40
2019-04-10T10:14:31.943Z,7.40
2019-04-10T10:15:34.231Z,11.00
2019-04-10T10:16:36.390Z,12.20
2019-04-10T10:17:39.214Z,12.40
2019-04-10T10:18:41.555Z,11.40
2019-04-10T10:19:44.651Z,11.20
2019-04-10T10:20:48.187Z,12.20
2019-04-10T10:21:50.741Z,11.40
2019-04-10T10:22:53.634Z,15.80
2019-04-10T10:23:56.734Z,14.00
2019-04-10T10:24:59.355Z,13.00
2019-04-10T10:26:01.788Z,14.00
2019-04-10T10:27:05.349Z,13.40
2019-04-10T10:28:07.507Z,7.00
2019-04-10T10:29:09.979Z,10.40
2019-04-10T10:30:13.487Z,11.80
2019-04-10T10:31:15.825Z,12.80
2019-04-10T10:32:19.209Z,13.80
2019-04-10T10:33:21.695Z,12.60
2019-04-10T10:34:24.591Z,12.60
2019-04-10T10:35:27.323Z,14.80
2019-04-10T10:36:36.847Z,12.80
2019-04-10T10:37:34.329Z,13.00
2019-04-10T10:38:37.048Z,15.60
2019-04-10T10:39:41.064Z,12.60
2019-04-10T10:40:44.592Z,11.20
2019-04-10T10:41:47.537Z,12.60
2019-04-10T10:42:50.113Z,10.40
2019-04-10T10:43:53.012Z,11.40
2019-04-10T10:44:56.445Z,12.00
2019-04-10T10:45:58.960Z,12.80
2019-04-10T10:47:02.093Z,8.00
2019-04-10T10:48:08.193Z,13.00
2019-04-10T10:49:08.433Z,13.00
2019-04-10T10:50:11.181Z,11.00
2019-04-10T10:51:13.560Z,10.40
2019-04-10T10:52:17.449Z,12.00
2019-04-10T10:53:19.909Z,11.20
2019-04-10T10:54:23.511Z,12.20
2019-04-10T10:55:26.424Z,12.80
2019-04-10T10:56:28.748Z,12.40
2019-04-10T10:57:31.349Z,11.00
2019-04-10T10:58:33.821Z,13.00
2019-04-10T10:59:37.643Z,11.00
2019-04-10T11:00:41.397Z,8.00
2019-04-10T11:01:44.956Z,11.80
2019-04-10T11:02:47.685Z,7.40
2019-04-10T11:03:50.736Z,8.00
2019-04-10T11:04:53.873Z,11.40
2019-04-10T11:05:58.254Z,11.60
2019-04-10T11:07:01.225Z,6.60
2019-04-10T11:08:05.392Z,7.60
2019-04-10T11:09:10.714Z,9.00
2019-04-10T11:10:15.002Z,17.00
2019-04-10T11:11:17.748Z,14.80
2019-04-10T11:12:20.077Z,15.00
2019-04-10T11:13:22.680Z,17.40
2019-04-10T11:14:27.716Z,15.00
2019-04-10T11:15:30.686Z,15.40
2019-04-10T11:16:33.931Z,11.40
2019-04-10T11:17:38.217Z,13.60
2019-04-10T11:18:42.426Z,8.00
2019-04-10T11:19:46.873Z,10.20
2019-04-10T11:20:49.910Z,12.80
2019-04-10T11:21:51.700Z,13.00
2019-04-10T11:22:55.734Z,13.40
2019-04-10T11:23:58.410Z,13.80
2019-04-10T11:25:01.467Z,13.60
2019-04-10T11:26:04.676Z,14.80
2019-04-10T11:27:08.543Z,17.60
2019-04-10T11:28:12.538Z,15.20
2019-04-10T11:29:17.585Z,15.40
2019-04-10T11:30:20.674Z,14.60
2019-04-10T11:31:23.842Z,10.80
2019-04-10T11:32:28.883Z,9.00
2019-04-10T11:33:32.874Z,8.80
2019-04-10T11:34:35.863Z,14.60
2019-04-10T11:35:39.647Z,15.80
2019-04-10T11:36:42.884Z,15.00
2019-04-10T11:37:49.584Z,12.40
2019-04-10T11:38:51.902Z,14.60
2019-04-10T11:39:56.399Z,14.40
2019-04-10T11:41:00.090Z,12.80
2019-04-10T11:42:04.149Z,14.40
2019-04-10T11:43:07.682Z,11.20
2019-04-10T11:44:11.544Z,12.40
2019-04-10T11:45:17.007Z,7.00
2019-04-10T11:46:20.004Z,13.80
2019-04-10T11:47:24.746Z,14.80
2019-04-10T11:48:29.132Z,13.40
2019-04-10T11:49:33.338Z,10.00
2019-04-10T11:50:38.085Z,14.00
2019-04-10T11:51:39.907Z,13.80
2019-04-10T11:54:53.174Z,9.60
2019-04-10T11:55:56.989Z,15.00
2019-04-10T11:58:05.362Z,8.60
2019-04-10T11:59:11.566Z,10.00
2019-04-10T12:00:17.531Z,8.00
2019-04-10T12:01:21.160Z,10.60
2019-04-10T12:02:24.961Z,11.40
2019-04-10T12:03:27.201Z,8.40
2019-04-10T12:04:30.861Z,11.20
2019-04-10T12:05:38.087Z,13.80
2019-04-10T12:06:40.477Z,16.80
2019-04-10T12:08:28.038Z,11.00
2019-04-10T12:09:08.401Z,11.60
2019-04-10T12:12:01.415Z,12.40
2019-04-10T12:13:04.593Z,11.60
2019-04-10T12:14:07.666Z,13.40
2019-04-10T12:15:10.384Z,9.40
2019-04-10T12:16:12.654Z,11.00
2019-04-10T12:17:17.967Z,12.00
2019-04-10T12:18:20.384Z,16.00
2019-04-10T12:19:25.074Z,10.40
2019-04-10T12:20:31.102Z,12.20
2019-04-10T12:21:33.751Z,7.00
2019-04-10T12:22:37.907Z,9.00
2019-04-10T12:23:40.938Z,14.80
2019-04-10T12:24:43.326Z,15.20
2019-04-10T12:25:47.104Z,11.00
2019-04-10T12:26:49.882Z,14.00
2019-04-10T12:27:51.995Z,11.60
2019-04-10T12:28:54.068Z,12.00
2019-04-10T12:29:57.230Z,9.40
2019-04-10T12:30:59.817Z,14.60
2019-04-10T12:32:02.759Z,15.40
2019-04-10T12:33:05.395Z,13.60
2019-04-10T12:34:07.399Z,12.40
2019-04-10T12:35:10.952Z,14.00
2019-04-10T12:36:14.336Z,8.00
2019-04-10T12:37:17.498Z,15.20
2019-04-10T12:38:19.748Z,11.00
2019-04-10T12:39:22.711Z,8.00
2019-04-10T12:40:25.049Z,11.20
2019-04-10T12:41:27.727Z,14.20
2019-04-10T12:42:30.273Z,11.80
2019-04-10T12:43:34.740Z,14.00
2019-04-10T12:44:38.673Z,9.60
2019-04-10T12:45:41.985Z,8.00
2019-04-10T12:46:45.571Z,11.00
2019-04-10T12:47:48.309Z,10.60
2019-04-10T12:48:50.906Z,12.00
2019-04-10T12:49:54.020Z,12.80
2019-04-10T12:50:57.119Z,13.80
2019-04-10T12:52:00.295Z,14.40
2019-04-10T12:53:03.198Z,13.20
2019-04-10T12:54:06.216Z,14.40
2019-04-10T12:55:10.005Z,11.80
2019-04-10T12:56:13.743Z,19.00
2019-04-10T12:57:19.679Z,16.20
2019-04-10T12:58:22.530Z,15.60
2019-04-10T12:59:25.674Z,14.60
2019-04-10T13:00:27.842Z,12.40
2019-04-10T13:01:31.006Z,12.40
2019-04-10T13:02:34.364Z,12.20
2019-04-10T13:03:37.221Z,11.00
2019-04-10T13:04:40.671Z,15.60
2019-04-10T13:05:43.832Z,15.40
2019-04-10T13:06:46.439Z,17.00
2019-04-10T13:07:49.097Z,17.60
2019-04-10T13:09:03.643Z,17.40
2019-04-10T13:09:58.220Z,16.40
2019-04-10T13:11:01.122Z,15.00
2019-04-10T13:12:04.869Z,16.00
2019-04-10T13:13:07.745Z,16.60
2019-04-10T13:14:11.264Z,14.00
2019-04-10T13:15:13.710Z,18.20
2019-04-10T13:16:16.839Z,19.40
2019-04-10T13:17:20.285Z,16.20
2019-04-10T13:18:23.171Z,17.20
2019-04-10T13:19:25.803Z,18.00
2019-04-10T13:20:29.447Z,13.80
2019-04-10T13:21:32.720Z,17.60
2019-04-10T13:22:36.001Z,12.60
2019-04-10T13:23:39.675Z,17.20
2019-04-10T13:24:42.308Z,14.80
2019-04-10T13:25:55.434Z,14.60
2019-04-10T13:26:50.206Z,14.80
2019-04-10T13:27:54.912Z,16.20
2019-04-10T13:28:58.128Z,17.20
2019-04-10T13:30:00.750Z,12.60
2019-04-10T13:31:03.586Z,18.60
2019-04-10T13:32:08.355Z,20.80
2019-04-10T13:33:11.918Z,12.60
2019-04-10T13:34:15.269Z,16.00
2019-04-10T13:35:18.028Z,13.20
2019-04-10T13:36:19.989Z,11.60
2019-04-10T13:37:22.485Z,17.20
2019-04-10T13:38:30.188Z,16.20
2019-04-10T13:39:30.861Z,16.20
2019-04-10T13:40:33.251Z,15.20
2019-04-10T13:41:36.631Z,14.40
2019-04-10T13:42:39.382Z,21.60
2019-04-10T13:43:42.285Z,14.20
2019-04-10T13:44:44.773Z,19.60
2019-04-10T13:45:48.678Z,21.80
2019-04-10T13:46:51.244Z,17.60
2019-04-10T13:47:54.641Z,12.60
2019-04-10T13:48:57.669Z,13.80
2019-04-10T13:50:00.535Z,17.00